createdAt,value
2018-03-28T00:00:40.605Z,6.50
2018-03-28T00:03:08.744Z,6.60
2018-03-28T00:05:36.860Z,6.60
2018-03-28T00:08:05.774Z,6.60
2018-03-28T00:10:33.894Z,6.60
2018-03-28T00:13:02.020Z,6.60
2018-03-28T00:15:30.124Z,6.60
2018-03-28T00:17:58.248Z,6.50
2018-03-28T00:20:27.119Z,6.50
2018-03-28T00:22:56.349Z,6.60
2018-03-28T00:25:24.495Z,6.60
2018-03-28T00:27:52.619Z,6.60
2018-03-28T00:30:20.728Z,6.60
2018-03-28T00:32:48.859Z,6.60
2018-03-28T00:35:16.969Z,6.60
2018-03-28T00:37:45.108Z,6.50
2018-03-28T00:40:13.268Z,6.50
2018-03-28T00:42:41.400Z,6.50
2018-03-28T00:45:09.507Z,6.40
2018-03-28T00:47:38.394Z,6.40
2018-03-28T00:50:06.502Z,6.40
2018-03-28T00:52:34.632Z,6.50
2018-03-28T00:55:03.499Z,6.40
2018-03-28T00:57:31.628Z,6.40
2018-03-28T01:00:01.041Z,6.30
2018-03-28T01:02:29.171Z,6.40
2018-03-28T01:04:58.422Z,6.50
2018-03-28T01:07:26.555Z,6.40
2018-03-28T01:09:54.666Z,6.50
2018-03-28T01:12:22.809Z,6.50
2018-03-28T01:14:50.907Z,6.60
2018-03-28T01:17:19.047Z,6.60
2018-03-28T01:19:47.155Z,6.60
2018-03-28T01:22:15.279Z,6.60
2018-03-28T01:24:44.155Z,6.70
2018-03-28T01:27:12.298Z,6.60
2018-03-28T01:29:40.390Z,6.70
2018-03-28T01:32:08.515Z,6.70
2018-03-28T01:34:36.618Z,6.80
2018-03-28T01:37:04.746Z,6.80
2018-03-28T01:39:32.868Z,6.70
2018-03-28T01:42:00.999Z,6.70
2018-03-28T01:44:29.099Z,6.70
2018-03-28T01:46:57.235Z,6.70
2018-03-28T01:49:26.106Z,6.70
2018-03-28T01:51:54.259Z,6.70
2018-03-28T01:54:22.369Z,6.80
2018-03-28T01:56:51.265Z,6.80
2018-03-28T01:59:19.370Z,6.80
2018-03-28T02:01:47.515Z,6.80
2018-03-28T02:04:15.626Z,6.80
2018-03-28T02:06:43.727Z,6.90
2018-03-28T02:09:11.869Z,6.80
2018-03-28T02:11:39.976Z,6.80
2018-03-28T02:14:08.103Z,6.90
2018-03-28T02:16:36.218Z,6.90
2018-03-28T02:19:04.352Z,6.90
2018-03-28T02:21:32.454Z,6.80
2018-03-28T02:24:00.600Z,6.90
2018-03-28T02:26:28.702Z,6.80
2018-03-28T02:28:56.846Z,6.70
2018-03-28T02:31:24.965Z,6.70
2018-03-28T02:33:53.109Z,6.70
2018-03-28T02:36:21.210Z,6.80
2018-03-28T02:38:49.373Z,6.80
2018-03-28T02:41:17.500Z,6.70
2018-03-28T02:43:45.652Z,6.70
2018-03-28T02:46:13.765Z,6.80
2018-03-28T02:48:41.896Z,6.70
2018-03-28T02:51:10.004Z,6.70
2018-03-28T02:53:38.144Z,6.70
2018-03-28T02:56:07.019Z,6.80
2018-03-28T02:58:35.913Z,6.80
2018-03-28T03:01:04.794Z,6.70
2018-03-28T03:03:32.925Z,6.70
2018-03-28T03:06:01.037Z,6.80
2018-03-28T03:08:29.166Z,6.80
2018-03-28T03:10:57.293Z,6.90
2018-03-28T03:13:26.206Z,6.90
2018-03-28T03:15:54.306Z,6.90
2018-03-28T03:18:22.445Z,6.80
2018-03-28T03:20:50.554Z,6.80
2018-03-28T03:23:18.691Z,6.80
2018-03-28T03:25:46.806Z,6.90
2018-03-28T03:28:14.937Z,6.90
2018-03-28T03:30:43.061Z,6.80
2018-03-28T03:33:11.193Z,6.80
2018-03-28T03:35:39.314Z,6.80
2018-03-28T03:38:07.455Z,6.80
2018-03-28T03:40:35.660Z,6.80
2018-03-28T03:43:03.796Z,6.90
2018-03-28T03:45:31.912Z,6.90
2018-03-28T03:48:00.046Z,6.80
2018-03-28T03:50:28.148Z,6.90
2018-03-28T03:52:56.282Z,6.80
2018-03-28T03:55:24.408Z,6.90
2018-03-28T03:57:52.546Z,6.80
2018-03-28T04:00:21.586Z,6.80
2018-03-28T04:02:49.723Z,6.80
2018-03-28T04:05:17.844Z,6.70
2018-03-28T04:07:46.746Z,6.90
2018-03-28T04:10:14.865Z,6.90
2018-03-28T04:12:42.995Z,6.90
2018-03-28T04:15:11.098Z,6.90
2018-03-28T04:17:39.229Z,6.90
2018-03-28T04:20:08.104Z,7.00
2018-03-28T04:22:36.246Z,7.00
2018-03-28T04:25:04.357Z,6.90
2018-03-28T04:27:33.042Z,6.90
2018-03-28T04:30:01.158Z,6.90
2018-03-28T04:32:29.392Z,6.90
2018-03-28T04:34:58.752Z,6.90
2018-03-28T04:37:26.854Z,6.80
2018-03-28T04:39:55.771Z,6.80
2018-03-28T04:42:24.655Z,6.80
2018-03-28T04:44:53.558Z,6.80
2018-03-28T04:47:22.423Z,6.90
2018-03-28T04:49:50.559Z,6.90
2018-03-28T04:52:18.681Z,6.90
2018-03-28T04:54:46.813Z,6.90
2018-03-28T04:57:14.926Z,6.80
2018-03-28T04:59:43.056Z,6.80
2018-03-28T05:02:11.164Z,6.90
2018-03-28T05:04:39.318Z,6.90
2018-03-28T05:07:07.428Z,6.90
2018-03-28T05:09:36.704Z,6.90
2018-03-28T05:12:04.824Z,6.90
2018-03-28T05:14:32.946Z,6.90
2018-03-28T05:17:01.076Z,7.00
2018-03-28T05:19:29.212Z,7.00
2018-03-28T05:21:57.317Z,7.20
2018-03-28T05:24:25.542Z,7.20
2018-03-28T05:26:53.693Z,7.30
2018-03-28T05:29:21.827Z,7.30
2018-03-28T05:31:50.752Z,7.50
2018-03-28T05:34:18.856Z,7.50
2018-03-28T05:36:46.976Z,7.60
2018-03-28T05:39:15.102Z,7.50
2018-03-28T05:41:43.235Z,7.50
2018-03-28T05:44:11.345Z,7.40
2018-03-28T05:46:39.451Z,7.30
2018-03-28T05:49:08.342Z,7.20
2018-03-28T05:51:37.205Z,7.20
2018-03-28T05:54:05.349Z,7.20
2018-03-28T05:56:33.446Z,7.20
2018-03-28T05:59:01.581Z,7.20
2018-03-28T06:01:29.686Z,7.30
2018-03-28T06:03:57.814Z,7.30
2018-03-28T06:06:25.924Z,7.50
2018-03-28T06:08:54.057Z,7.50
2018-03-28T06:11:22.180Z,7.40
2018-03-28T06:13:50.313Z,7.40
2018-03-28T06:16:18.430Z,7.50
2018-03-28T06:18:47.552Z,7.60
2018-03-28T06:21:16.427Z,7.50
2018-03-28T06:23:44.560Z,7.50
2018-03-28T06:26:12.686Z,7.50
2018-03-28T06:28:40.811Z,7.60
2018-03-28T06:31:08.920Z,7.50
2018-03-28T06:33:37.130Z,7.50
2018-03-28T06:36:05.273Z,7.60
2018-03-28T06:38:33.404Z,7.70
2018-03-28T06:41:01.520Z,7.70
2018-03-28T06:43:29.758Z,7.70
2018-03-28T06:45:57.887Z,7.80
2018-03-28T06:48:26.001Z,8.00
2018-03-28T06:50:54.179Z,8.10
2018-03-28T06:53:22.284Z,8.10
2018-03-28T06:55:50.411Z,7.80
2018-03-28T06:58:18.710Z,7.60
2018-03-28T07:00:47.987Z,7.50
2018-03-28T07:03:16.106Z,7.50
2018-03-28T07:05:44.263Z,7.60
2018-03-28T07:08:12.459Z,7.80
2018-03-28T07:10:40.586Z,8.00
2018-03-28T07:13:08.876Z,7.90
2018-03-28T07:15:37.835Z,8.20
2018-03-28T07:18:06.085Z,8.20
2018-03-28T07:20:34.300Z,8.10
2018-03-28T07:23:03.180Z,8.30
2018-03-28T07:25:31.636Z,8.30
2018-03-28T07:28:00.600Z,8.50
2018-03-28T07:30:28.728Z,8.50
2018-03-28T07:32:56.853Z,8.50
2018-03-28T07:35:24.971Z,8.50
2018-03-28T07:37:53.076Z,8.40
2018-03-28T07:40:21.209Z,8.50
2018-03-28T07:42:49.504Z,8.60
2018-03-28T07:45:18.476Z,8.70
2018-03-28T07:47:46.607Z,8.70
2018-03-28T07:50:14.752Z,8.90
2018-03-28T07:52:42.861Z,9.10
2018-03-28T07:55:11.008Z,9.00
2018-03-28T07:57:39.107Z,9.10
2018-03-28T08:00:07.250Z,9.30
2018-03-28T08:02:35.356Z,9.40
2018-03-28T08:05:03.484Z,9.50
2018-03-28T08:07:31.608Z,9.70
2018-03-28T08:09:59.738Z,9.90
2018-03-28T08:12:27.857Z,10.00
2018-03-28T08:14:56.758Z,9.80
2018-03-28T08:17:25.624Z,9.90
2018-03-28T08:19:53.751Z,9.90
2018-03-28T08:22:21.886Z,10.30
2018-03-28T08:24:50.786Z,10.30
2018-03-28T08:27:19.671Z,10.30
2018-03-28T08:29:48.577Z,10.00
2018-03-28T08:32:16.690Z,10.00
2018-03-28T08:34:44.824Z,9.90
2018-03-28T08:37:12.934Z,9.90
2018-03-28T08:39:41.071Z,10.00
2018-03-28T08:42:09.175Z,9.90
2018-03-28T08:44:37.328Z,10.00
2018-03-28T08:47:05.450Z,10.00
2018-03-28T08:49:33.621Z,10.00
2018-03-28T08:52:01.740Z,10.10
2018-03-28T08:54:29.875Z,9.90
2018-03-28T08:56:57.978Z,9.80
2018-03-28T08:59:26.112Z,9.70
2018-03-28T09:01:54.227Z,9.50
2018-03-28T09:04:22.322Z,9.40
2018-03-28T09:06:50.454Z,9.40
2018-03-28T09:09:19.371Z,9.40
2018-03-28T09:11:47.515Z,9.40
2018-03-28T09:14:16.379Z,9.30
2018-03-28T09:16:44.519Z,9.30
2018-03-28T09:19:12.635Z,9.40
2018-03-28T09:21:40.779Z,9.50
2018-03-28T09:24:08.882Z,9.40
2018-03-28T09:26:37.032Z,9.40
2018-03-28T09:29:05.186Z,9.20
2018-03-28T09:31:33.344Z,9.40
2018-03-28T09:34:01.460Z,9.30
2018-03-28T09:36:29.645Z,9.40
2018-03-28T09:38:57.830Z,9.20
2018-03-28T09:41:26.028Z,9.20
2018-03-28T09:43:54.218Z,9.20
2018-03-28T09:46:22.417Z,9.20
2018-03-28T09:48:50.599Z,9.10
2018-03-28T09:51:18.802Z,9.00
2018-03-28T09:53:46.972Z,9.00
2018-03-28T09:56:15.166Z,9.10
2018-03-28T09:58:44.093Z,9.10
2018-03-28T10:01:12.304Z,9.10
2018-03-28T10:03:46.044Z,9.20
2018-03-28T10:06:15.007Z,9.30
2018-03-28T10:08:43.862Z,9.30
2018-03-28T10:11:13.502Z,9.60
2018-03-28T10:13:41.673Z,9.60
2018-03-28T10:16:09.894Z,9.50
2018-03-28T10:18:38.826Z,9.60
2018-03-28T10:21:07.013Z,9.50
2018-03-28T10:23:35.174Z,9.80
2018-03-28T10:26:03.516Z,9.70
2018-03-28T10:28:31.725Z,9.60
2018-03-28T10:30:59.931Z,9.50
2018-03-28T10:33:28.099Z,9.50
2018-03-28T10:35:56.300Z,9.60
2018-03-28T10:38:25.263Z,9.90
2018-03-28T10:40:53.454Z,9.80
2018-03-28T10:43:21.630Z,10.00
2018-03-28T10:45:50.620Z,10.00
2018-03-28T10:48:18.814Z,10.00
2018-03-28T10:50:47.773Z,10.10
2018-03-28T10:53:26.079Z,10.10
2018-03-28T10:55:54.260Z,10.10
2018-03-28T10:58:22.516Z,10.00
2018-03-28T11:00:50.763Z,9.90
2018-03-28T11:03:18.940Z,9.90
2018-03-28T11:05:47.182Z,9.80
2018-03-28T11:08:15.327Z,9.80
2018-03-28T11:10:43.472Z,9.80
2018-03-28T11:13:11.680Z,9.80
2018-03-28T11:15:39.871Z,9.80
2018-03-28T11:18:08.790Z,9.90
2018-03-28T11:20:37.203Z,9.90
2018-03-28T11:23:05.546Z,9.90
2018-03-28T11:25:34.158Z,10.10
2018-03-28T11:28:02.530Z,10.10
2018-03-28T11:30:30.852Z,9.90
2018-03-28T11:32:59.755Z,9.90
2018-03-28T11:35:28.652Z,10.00
2018-03-28T11:37:57.682Z,10.00
2018-03-28T11:40:26.541Z,9.80
2018-03-28T11:42:55.422Z,9.90
2018-03-28T11:45:24.316Z,9.90
2018-03-28T11:47:53.370Z,10.00
2018-03-28T11:50:21.499Z,10.00
2018-03-28T11:52:49.658Z,9.90
2018-03-28T11:55:18.534Z,10.20
2018-03-28T11:57:46.678Z,10.10
2018-03-28T12:00:14.883Z,10.20
2018-03-28T12:02:43.035Z,10.40
2018-03-28T12:05:11.149Z,10.60
2018-03-28T12:07:40.404Z,11.20
2018-03-28T12:10:08.514Z,11.10
2018-03-28T12:12:37.415Z,11.30
2018-03-28T12:15:06.292Z,11.40
2018-03-28T12:17:35.189Z,11.50
2018-03-28T12:20:03.365Z,11.50
2018-03-28T12:22:32.272Z,11.60
2018-03-28T12:25:07.305Z,11.60
2018-03-28T12:27:36.204Z,11.80
2018-03-28T12:30:04.324Z,11.80
2018-03-28T12:32:32.588Z,11.60
2018-03-28T12:35:00.703Z,11.70
2018-03-28T12:37:29.599Z,11.90
2018-03-28T12:39:58.490Z,12.10
2018-03-28T12:42:27.396Z,12.30
2018-03-28T12:44:55.509Z,12.30
2018-03-28T12:47:23.653Z,12.60
2018-03-28T12:49:51.830Z,12.70
2018-03-28T12:52:20.009Z,12.70
2018-03-28T12:54:48.062Z,12.80
2018-03-28T12:57:16.951Z,12.90
2018-03-28T12:59:45.851Z,13.00
2018-03-28T13:02:14.826Z,12.90
2018-03-28T13:04:42.899Z,12.90
2018-03-28T13:07:11.073Z,13.10
2018-03-28T13:09:39.266Z,13.10
2018-03-28T13:12:08.504Z,12.90
2018-03-28T13:14:36.722Z,12.90
2018-03-28T13:17:05.067Z,12.80
2018-03-28T13:19:33.227Z,12.70
2018-03-28T13:22:01.382Z,12.80
2018-03-28T13:24:29.516Z,12.70
2018-03-28T13:26:57.724Z,12.70
2018-03-28T13:29:26.804Z,12.80
2018-03-28T13:31:54.972Z,12.80
2018-03-28T13:34:23.951Z,12.80
2018-03-28T13:36:52.089Z,12.60
2018-03-28T13:39:20.387Z,12.30
2018-03-28T13:41:48.521Z,12.20
2018-03-28T13:44:16.649Z,12.20
2018-03-28T13:46:45.730Z,12.10
2018-03-28T13:49:18.122Z,12.10
2018-03-28T13:51:48.734Z,11.90
2018-03-28T13:54:25.172Z,11.90
2018-03-28T13:57:07.189Z,11.60
2018-03-28T13:59:37.863Z,11.80
2018-03-28T14:02:07.152Z,11.90
2018-03-28T14:04:35.347Z,11.90
2018-03-28T14:07:04.251Z,11.90
2018-03-28T14:09:32.376Z,11.90
2018-03-28T14:12:00.540Z,11.90
2018-03-28T14:14:28.649Z,12.00
2018-03-28T14:16:57.569Z,11.60
2018-03-28T14:19:25.684Z,11.60
2018-03-28T14:21:53.844Z,11.60
2018-03-28T14:24:21.952Z,11.40
2018-03-28T14:26:50.102Z,11.30
2018-03-28T14:29:18.206Z,11.30
2018-03-28T14:31:46.372Z,11.20
2018-03-28T14:34:14.483Z,11.10
2018-03-28T14:36:43.390Z,10.90
2018-03-28T14:39:11.516Z,10.90
2018-03-28T14:41:39.651Z,10.70
2018-03-28T14:44:07.768Z,10.60
2018-03-28T14:46:36.686Z,10.60
2018-03-28T14:49:04.800Z,10.50
2018-03-28T14:51:32.937Z,10.50
2018-03-28T14:54:01.065Z,10.30
2018-03-28T14:56:29.263Z,10.20
2018-03-28T14:58:58.154Z,9.90
2018-03-28T15:01:27.049Z,9.90
2018-03-28T15:03:55.945Z,9.80
2018-03-28T15:06:24.057Z,9.80
2018-03-28T15:08:53.391Z,9.80
2018-03-28T15:11:21.509Z,9.70
2018-03-28T15:13:49.634Z,9.70
2018-03-28T15:16:17.744Z,9.60
2018-03-28T15:18:45.876Z,9.60
2018-03-28T15:21:13.989Z,9.50
2018-03-28T15:23:42.901Z,9.40
2018-03-28T15:26:11.003Z,9.40
2018-03-28T15:28:39.143Z,9.40
2018-03-28T15:31:07.260Z,9.60
2018-03-28T15:33:37.215Z,9.70
2018-03-28T15:36:06.079Z,9.70
2018-03-28T15:38:34.213Z,9.60
2018-03-28T15:41:02.650Z,9.70
2018-03-28T15:43:31.551Z,9.70
2018-03-28T15:46:00.423Z,9.70
2018-03-28T15:48:28.551Z,9.70
2018-03-28T15:50:56.661Z,9.60
2018-03-28T15:53:24.796Z,9.50
2018-03-28T15:55:52.904Z,9.40
2018-03-28T15:58:21.037Z,9.30
2018-03-28T16:00:49.148Z,9.20
2018-03-28T16:03:17.274Z,9.10
2018-03-28T16:05:45.381Z,8.90
2018-03-28T16:08:13.527Z,8.70
2018-03-28T16:10:41.637Z,8.70
2018-03-28T16:15:39.133Z,8.70
2018-03-28T16:18:07.263Z,8.70
2018-03-28T16:20:35.383Z,8.70
2018-03-28T16:23:04.469Z,8.70
2018-03-28T16:25:32.584Z,8.60
2018-03-28T16:28:00.714Z,8.50
2018-03-28T16:30:28.824Z,8.50
2018-03-28T16:32:56.983Z,8.60
2018-03-28T16:35:25.248Z,8.60
2018-03-28T16:37:53.381Z,8.50
2018-03-28T16:40:21.494Z,8.40
2018-03-28T16:42:50.387Z,8.30
2018-03-28T16:45:19.276Z,8.40
2018-03-28T16:47:48.176Z,8.40
2018-03-28T16:50:17.046Z,8.40
2018-03-28T16:52:45.181Z,8.40
2018-03-28T16:55:13.975Z,8.40
2018-03-28T16:57:42.092Z,8.30
2018-03-28T17:00:10.989Z,8.30
2018-03-28T17:02:39.872Z,8.40
2018-03-28T17:05:08.742Z,8.40
2018-03-28T17:07:36.890Z,8.40
2018-03-28T17:10:05.013Z,8.50
2018-03-28T17:12:33.916Z,8.60
2018-03-28T17:15:02.030Z,8.50
2018-03-28T17:17:30.177Z,8.50
2018-03-28T17:19:58.282Z,8.50
2018-03-28T17:22:26.414Z,8.40
2018-03-28T17:24:54.518Z,8.30
2018-03-28T17:27:22.658Z,8.30
2018-03-28T17:29:50.768Z,8.20
2018-03-28T17:32:18.904Z,8.20
2018-03-28T17:34:47.007Z,8.20
2018-03-28T17:37:15.144Z,8.20
2018-03-28T17:39:44.560Z,8.10
2018-03-28T17:42:12.673Z,8.10
2018-03-28T17:44:42.428Z,8.10
2018-03-28T17:47:11.313Z,8.10
2018-03-28T17:49:40.225Z,8.10
2018-03-28T17:52:08.335Z,8.00
2018-03-28T17:54:36.462Z,8.00
2018-03-28T17:57:04.576Z,8.10
2018-03-28T17:59:32.732Z,8.10
2018-03-28T18:02:00.840Z,8.10
2018-03-28T18:04:28.973Z,8.00
2018-03-28T18:06:57.090Z,8.10
2018-03-28T18:09:25.218Z,8.10
2018-03-28T18:11:53.322Z,8.00
2018-03-28T18:14:22.653Z,8.00
2018-03-28T18:16:50.759Z,8.00
2018-03-28T18:19:18.906Z,8.00
2018-03-28T18:21:47.016Z,7.90
2018-03-28T18:24:15.159Z,7.90
2018-03-28T18:26:43.260Z,7.80
2018-03-28T18:29:11.387Z,7.80
2018-03-28T18:31:39.500Z,7.90
2018-03-28T18:34:07.679Z,7.90
2018-03-28T18:36:35.800Z,7.90
2018-03-28T18:39:03.937Z,7.90
2018-03-28T18:41:32.035Z,7.80
2018-03-28T18:44:00.165Z,7.80
2018-03-28T18:46:28.288Z,7.80
2018-03-28T18:48:56.419Z,7.70
2018-03-28T18:51:24.523Z,7.70
2018-03-28T18:53:52.675Z,7.60
2018-03-28T18:56:20.789Z,7.60
2018-03-28T18:58:48.889Z,7.60
2018-03-28T19:01:17.783Z,7.50
2018-03-28T19:03:46.659Z,7.50
2018-03-28T19:06:14.801Z,7.50
2018-03-28T19:08:42.913Z,7.50
2018-03-28T19:11:11.803Z,7.50
2018-03-28T19:13:40.746Z,7.50
2018-03-28T19:16:09.607Z,7.50
2018-03-28T19:18:37.724Z,7.50
2018-03-28T19:21:05.853Z,7.50
2018-03-28T19:23:33.960Z,7.50
2018-03-28T19:26:02.095Z,7.60
2018-03-28T19:28:30.959Z,7.60
2018-03-28T19:30:59.103Z,7.60
2018-03-28T19:33:27.210Z,7.60
2018-03-28T19:35:55.331Z,7.60
2018-03-28T19:38:23.443Z,7.60
2018-03-28T19:40:51.569Z,7.60
2018-03-28T19:43:19.691Z,7.70
2018-03-28T19:45:47.825Z,7.70
2018-03-28T19:48:15.944Z,7.80
2018-03-28T19:50:44.067Z,7.80
2018-03-28T19:53:12.197Z,7.80
2018-03-28T19:55:41.085Z,7.90
2018-03-28T19:58:09.236Z,7.80
2018-03-28T20:00:37.359Z,7.90
2018-03-28T20:03:05.466Z,7.90
2018-03-28T20:05:33.595Z,7.90
2018-03-28T20:08:01.708Z,7.90
2018-03-28T20:10:29.834Z,8.00
2018-03-28T20:12:58.698Z,8.10
2018-03-28T20:15:26.840Z,8.00
2018-03-28T20:17:54.930Z,8.20
2018-03-28T20:20:23.070Z,8.10
2018-03-28T20:22:51.186Z,8.00
2018-03-28T20:25:19.306Z,7.90
2018-03-28T20:27:47.426Z,7.90
2018-03-28T20:30:15.539Z,7.90
2018-03-28T20:32:44.454Z,7.70
2018-03-28T20:35:12.568Z,7.70
2018-03-28T20:37:40.724Z,7.70
2018-03-28T20:40:08.924Z,7.60
2018-03-28T20:42:37.100Z,7.60
2018-03-28T20:45:05.207Z,7.60
2018-03-28T20:47:33.348Z,7.60
2018-03-28T20:50:01.504Z,7.50
2018-03-28T20:52:29.676Z,7.50
2018-03-28T20:54:57.843Z,7.40
2018-03-28T20:57:25.974Z,7.40
2018-03-28T20:59:54.090Z,7.40
2018-03-28T21:02:22.534Z,7.50
2018-03-28T21:04:51.068Z,7.40
2018-03-28T21:07:19.678Z,7.50
2018-03-28T21:09:48.556Z,7.60
2018-03-28T21:12:16.674Z,7.60
2018-03-28T21:14:44.797Z,7.70
2018-03-28T21:17:12.950Z,7.60
2018-03-28T21:19:41.062Z,7.50
2018-03-28T21:22:09.982Z,7.60
2018-03-28T21:24:38.086Z,7.60
2018-03-28T21:27:06.302Z,7.60
2018-03-28T21:29:35.171Z,7.70
2018-03-28T21:32:03.411Z,7.70
2018-03-28T21:34:31.517Z,7.80
2018-03-28T21:36:59.669Z,7.80
2018-03-28T21:39:27.780Z,7.70
2018-03-28T21:41:56.673Z,8.00
2018-03-28T21:44:24.822Z,8.00
2018-03-28T21:46:53.008Z,8.10
2018-03-28T21:49:21.121Z,8.10
2018-03-28T21:51:49.237Z,8.10
2018-03-28T21:54:17.383Z,8.10
2018-03-28T21:56:45.482Z,8.20
2018-03-28T21:59:13.616Z,8.30
2018-03-28T22:01:41.720Z,8.20
2018-03-28T22:04:09.853Z,8.30
2018-03-28T22:06:37.954Z,8.30
2018-03-28T22:09:06.095Z,8.30
2018-03-28T22:11:34.210Z,8.30
2018-03-28T22:14:03.140Z,8.30
2018-03-28T22:16:32.023Z,8.40
2018-03-28T22:19:00.150Z,8.40
2018-03-28T22:21:28.265Z,8.40
2018-03-28T22:23:56.400Z,8.20
2018-03-28T22:26:24.517Z,8.30
2018-03-28T22:28:52.659Z,8.30
2018-03-28T22:31:20.791Z,8.20
2018-03-28T22:33:49.688Z,8.00
2018-03-28T22:36:18.551Z,8.00
2018-03-28T22:38:46.692Z,8.00
2018-03-28T22:41:14.804Z,8.00
2018-03-28T22:43:42.940Z,8.00
2018-03-28T22:46:11.047Z,7.90
2018-03-28T22:48:39.179Z,7.90
2018-03-28T22:51:07.299Z,7.60
2018-03-28T22:53:35.444Z,7.50
2018-03-28T22:56:03.561Z,7.40
2018-03-28T22:58:32.454Z,7.40
2018-03-28T23:01:00.567Z,7.40
2018-03-28T23:03:28.707Z,7.40
2018-03-28T23:05:56.816Z,7.30
2018-03-28T23:08:24.952Z,7.30
2018-03-28T23:10:53.059Z,7.40
2018-03-28T23:13:21.196Z,7.50
2018-03-28T23:15:49.337Z,7.50
2018-03-28T23:18:17.431Z,7.30
2018-03-28T23:20:46.330Z,7.30
2018-03-28T23:23:15.197Z,7.10
2018-03-28T23:25:43.311Z,7.10
2018-03-28T23:28:11.421Z,7.00
2018-03-28T23:30:39.549Z,7.00
2018-03-28T23:33:08.491Z,7.10
2018-03-28T23:35:36.650Z,6.90
2018-03-28T23:38:04.759Z,7.00
2018-03-28T23:40:33.660Z,6.80
2018-03-28T23:43:02.558Z,6.90
2018-03-28T23:45:31.452Z,6.80
2018-03-28T23:47:59.565Z,6.80
2018-03-28T23:50:27.705Z,6.80
2018-03-28T23:52:55.811Z,6.90
2018-03-28T23:55:23.944Z,6.90
2018-03-28T23:57:52.068Z,6.90
